createdAt,value
2024-04-11T00:03:08.793Z,6.73
2024-04-11T00:06:38.701Z,6.68
2024-04-11T00:10:05.243Z,6.62
2024-04-11T00:13:31.356Z,6.57
2024-04-11T00:16:58.689Z,6.55
2024-04-11T00:20:24.974Z,6.54
2024-04-11T00:23:51.847Z,6.53
2024-04-11T00:27:18.537Z,6.53
2024-04-11T00:30:44.600Z,6.51
2024-04-11T00:34:24.052Z,6.49
2024-04-11T00:37:50.622Z,6.46
2024-04-11T00:41:17.124Z,6.44
2024-04-11T00:44:43.483Z,6.40
2024-04-11T00:48:10.477Z,6.36
2024-04-11T00:51:36.649Z,6.33
2024-04-11T00:55:03.262Z,6.29
2024-04-11T00:58:29.956Z,6.25
2024-04-11T01:01:56.004Z,6.19
2024-04-11T01:05:22.201Z,6.12
2024-04-11T01:08:48.018Z,6.04
2024-04-11T01:12:15.082Z,5.96
2024-04-11T01:15:41.161Z,5.88
2024-04-11T01:19:07.389Z,5.82
2024-04-11T01:22:33.933Z,5.77
2024-04-11T01:26:00.601Z,5.72
2024-04-11T01:29:26.699Z,5.71
2024-04-11T01:33:02.095Z,5.69
2024-04-11T01:36:29.029Z,5.65
2024-04-11T01:39:55.177Z,5.60
2024-04-11T01:43:21.163Z,5.54
2024-04-11T01:46:47.268Z,5.50
2024-04-11T01:50:13.435Z,5.46
2024-04-11T01:53:39.895Z,5.44
2024-04-11T01:57:07.098Z,5.41
2024-04-11T02:00:37.563Z,5.38
2024-04-11T02:04:06.806Z,5.35
2024-04-11T02:07:35.991Z,5.31
2024-04-11T02:11:02.269Z,5.29
2024-04-11T02:14:28.351Z,5.29
2024-04-11T02:17:54.424Z,5.26
2024-04-11T02:21:20.828Z,5.25
2024-04-11T02:24:47.776Z,5.24
2024-04-11T02:28:14.744Z,5.21
2024-04-11T02:31:41.157Z,5.21
2024-04-11T02:35:07.412Z,5.20
2024-04-11T02:38:33.297Z,5.17
2024-04-11T02:42:01.277Z,5.13
2024-04-11T02:45:28.465Z,5.09
2024-04-11T02:48:54.659Z,5.05
2024-04-11T02:52:20.910Z,5.01
2024-04-11T02:55:46.832Z,4.96
2024-04-11T02:59:13.359Z,4.92
2024-04-11T03:02:39.318Z,4.89
2024-04-11T03:06:11.125Z,4.87
2024-04-11T03:09:36.954Z,4.85
2024-04-11T03:13:02.788Z,4.84
2024-04-11T03:16:31.119Z,4.81
2024-04-11T03:19:57.165Z,4.80
2024-04-11T03:23:23.575Z,4.79
2024-04-11T03:26:49.548Z,4.79
2024-04-11T03:30:15.534Z,4.79
2024-04-11T03:33:41.925Z,4.79
2024-04-11T03:37:08.311Z,4.78
2024-04-11T03:40:34.780Z,4.76
2024-04-11T03:44:00.491Z,4.73
2024-04-11T03:47:26.505Z,4.70
2024-04-11T03:50:53.394Z,4.69
2024-04-11T03:54:20.210Z,4.67
2024-04-11T03:57:46.045Z,4.66
2024-04-11T04:01:14.289Z,4.66
2024-04-11T04:04:40.393Z,4.68
2024-04-11T04:08:07.034Z,4.68
2024-04-11T04:11:32.803Z,4.72
2024-04-11T04:14:59.111Z,4.74
2024-04-11T04:18:26.537Z,4.78
2024-04-11T04:21:52.352Z,4.81
2024-04-11T04:25:18.044Z,4.85
2024-04-11T04:28:44.409Z,4.90
2024-04-11T04:32:10.260Z,4.96
2024-04-11T04:35:36.071Z,5.02
2024-04-11T04:39:06.048Z,5.08
2024-04-11T04:42:32.056Z,5.17
2024-04-11T04:45:58.668Z,5.28
2024-04-11T04:49:25.064Z,5.43
2024-04-11T04:52:51.762Z,5.65
2024-04-11T04:56:18.997Z,6.19
2024-04-11T04:59:44.765Z,6.93
2024-04-11T05:03:11.461Z,7.72
2024-04-11T05:06:38.391Z,8.53
2024-04-11T05:10:04.652Z,9.31
2024-04-11T05:13:33.384Z,10.08
2024-04-11T05:16:59.919Z,10.84
2024-04-11T05:20:28.641Z,11.53
2024-04-11T05:23:56.731Z,12.14
2024-04-11T05:27:22.677Z,12.75
2024-04-11T05:30:49.401Z,13.33
2024-04-11T05:34:17.831Z,13.88
2024-04-11T05:37:46.146Z,14.42
2024-04-11T05:41:12.349Z,14.89
2024-04-11T05:44:38.115Z,15.30
2024-04-11T05:48:07.646Z,15.74
2024-04-11T05:51:36.226Z,16.15
2024-04-11T05:55:03.563Z,16.54
2024-04-11T05:58:29.708Z,16.94
2024-04-11T06:01:55.784Z,17.35
2024-04-11T06:05:21.934Z,17.73
2024-04-11T06:08:49.342Z,18.24
2024-04-11T06:12:15.725Z,18.65
2024-04-11T06:15:43.168Z,18.81
2024-04-11T06:19:09.297Z,18.91
2024-04-11T06:22:36.788Z,19.13
2024-04-11T06:26:03.437Z,19.45
2024-04-11T06:29:29.212Z,19.74
2024-04-11T06:32:59.008Z,19.88
2024-04-11T06:36:25.024Z,19.82
2024-04-11T06:39:50.907Z,19.86
2024-04-11T06:43:17.397Z,20.08
2024-04-11T06:46:46.596Z,20.25
2024-04-11T06:50:14.364Z,20.40
2024-04-11T06:53:44.378Z,20.63
2024-04-11T06:57:13.364Z,20.61
2024-04-11T07:00:42.184Z,20.48
2024-04-11T07:04:08.096Z,20.39
2024-04-11T07:07:36.461Z,20.15
2024-04-11T07:11:20.019Z,20.00
2024-04-11T07:14:51.466Z,19.88
2024-04-11T07:18:17.536Z,19.85
2024-04-11T07:21:44.851Z,19.84
2024-04-11T07:25:10.907Z,20.03
2024-04-11T07:28:37.583Z,19.94
2024-04-11T07:32:03.381Z,19.81
2024-04-11T07:35:31.233Z,19.63
2024-04-11T07:38:58.810Z,19.41
2024-04-11T07:42:44.678Z,19.53
2024-04-11T07:46:10.827Z,19.55
2024-04-11T07:49:38.273Z,19.45
2024-04-11T07:53:07.962Z,19.34
2024-04-11T07:56:36.022Z,19.22
2024-04-11T08:00:02.378Z,19.02
2024-04-11T08:03:38.520Z,18.93
2024-04-11T08:07:04.629Z,18.82
2024-04-11T08:10:33.597Z,18.81
2024-04-11T08:13:59.484Z,18.63
2024-04-11T08:17:26.963Z,18.50
2024-04-11T08:20:52.749Z,18.32
2024-04-11T08:24:18.450Z,18.20
2024-04-11T08:27:44.588Z,18.12
2024-04-11T08:31:12.340Z,18.11
2024-04-11T08:34:39.985Z,17.93
2024-04-11T08:38:08.207Z,17.71
2024-04-11T08:41:34.064Z,17.59
2024-04-11T08:45:01.162Z,17.56
2024-04-11T08:48:28.296Z,17.48
2024-04-11T08:51:55.012Z,17.38
2024-04-11T08:55:21.332Z,17.37
2024-04-11T08:58:48.838Z,17.29
2024-04-11T09:02:14.627Z,17.23
2024-04-11T09:05:40.622Z,17.22
2024-04-11T09:09:11.434Z,17.19
2024-04-11T09:12:37.380Z,17.24
2024-04-11T09:16:09.800Z,17.24
2024-04-11T09:19:40.487Z,17.28
2024-04-11T09:23:06.642Z,17.34
2024-04-11T09:26:32.538Z,17.39
2024-04-11T09:29:58.455Z,17.40
2024-04-11T09:33:26.202Z,17.49
2024-04-11T09:36:53.200Z,17.50
2024-04-11T09:40:27.162Z,17.56
2024-04-11T09:43:56.856Z,17.65
2024-04-11T09:47:28.157Z,17.76
2024-04-11T09:50:56.530Z,17.85
2024-04-11T09:54:23.459Z,17.94
2024-04-11T09:57:51.060Z,18.08
2024-04-11T10:01:31.074Z,18.14
2024-04-11T10:05:05.786Z,18.21
2024-04-11T10:08:37.412Z,18.34
2024-04-11T10:12:06.889Z,18.49
2024-04-11T10:15:35.171Z,18.63
2024-04-11T10:19:09.211Z,18.72
2024-04-11T10:22:44.210Z,18.69
2024-04-11T10:26:15.723Z,18.86
2024-04-11T10:29:44.596Z,19.09
2024-04-11T10:33:14.654Z,19.18
2024-04-11T10:36:43.762Z,19.20
2024-04-11T10:40:16.226Z,19.34
2024-04-11T10:43:46.597Z,19.53
2024-04-11T10:47:14.824Z,19.57
2024-04-11T10:50:43.483Z,19.58
2024-04-11T10:54:12.419Z,19.52
2024-04-11T10:57:39.244Z,19.53
2024-04-11T11:01:11.478Z,19.62
2024-04-11T11:04:44.312Z,19.49
2024-04-11T11:08:11.180Z,19.26
2024-04-11T11:11:41.080Z,19.04
2024-04-11T11:15:10.970Z,18.81
2024-04-11T11:18:40.263Z,18.64
2024-04-11T11:22:06.544Z,18.46
2024-04-11T11:25:33.890Z,18.53
2024-04-11T11:28:59.696Z,18.85
2024-04-11T11:32:27.208Z,19.20
2024-04-11T11:35:53.268Z,19.47
2024-04-11T11:39:19.775Z,19.70
2024-04-11T11:42:45.510Z,19.84
2024-04-11T11:46:28.044Z,19.86
2024-04-11T11:49:55.242Z,19.79
2024-04-11T11:53:27.277Z,19.80
2024-04-11T11:57:10.354Z,19.91
2024-04-11T12:00:51.109Z,20.03
2024-04-11T12:04:17.168Z,20.14
2024-04-11T12:07:46.616Z,20.14
2024-04-11T12:11:22.673Z,20.07
2024-04-11T12:14:56.195Z,20.02
2024-04-11T12:18:23.637Z,19.95
2024-04-11T12:21:49.570Z,19.93
2024-04-11T12:25:17.647Z,19.95
2024-04-11T12:28:46.457Z,19.93
2024-04-11T12:32:13.868Z,19.98
2024-04-11T12:35:47.072Z,20.09
2024-04-11T12:39:14.696Z,20.15
2024-04-11T12:42:41.251Z,20.19
2024-04-11T12:46:07.481Z,20.20
2024-04-11T12:49:36.601Z,20.19
2024-04-11T12:53:11.382Z,20.22
2024-04-11T12:56:41.061Z,20.25
2024-04-11T13:00:10.628Z,20.30
2024-04-11T13:03:54.045Z,20.28
2024-04-11T13:07:22.074Z,20.30
2024-04-11T13:10:50.128Z,20.34
2024-04-11T13:14:18.633Z,20.32
2024-04-11T13:17:44.662Z,20.26
2024-04-11T13:21:16.118Z,20.24
2024-04-11T13:24:49.080Z,20.26
2024-04-11T13:28:15.863Z,20.29
2024-04-11T13:31:41.823Z,20.34
2024-04-11T13:35:14.894Z,20.37
2024-04-11T13:38:43.462Z,20.34
2024-04-11T13:42:14.923Z,20.32
2024-04-11T13:45:42.838Z,20.34
2024-04-11T13:49:26.067Z,20.40
2024-04-11T13:52:52.490Z,20.48
2024-04-11T13:56:18.386Z,20.54
2024-04-11T13:59:44.425Z,20.52
2024-04-11T14:03:24.530Z,20.52
2024-04-11T14:07:04.846Z,20.52
2024-04-11T14:10:30.789Z,20.55
2024-04-11T14:13:57.416Z,20.58
2024-04-11T14:20:58.418Z,20.74
2024-04-11T14:24:36.750Z,20.79
2024-04-11T14:28:02.802Z,20.79
2024-04-11T14:31:32.257Z,20.85
2024-04-11T14:35:23.756Z,20.94
2024-04-11T14:38:50.225Z,20.99
2024-04-11T14:42:23.754Z,20.97
2024-04-11T14:45:49.974Z,20.88
2024-04-11T14:49:17.319Z,20.80
2024-04-11T14:52:44.064Z,20.77
2024-04-11T14:56:18.940Z,20.79
2024-04-11T14:59:47.864Z,20.84
2024-04-11T15:03:17.141Z,20.86
2024-04-11T15:06:45.589Z,20.80
2024-04-11T15:10:18.927Z,20.71
2024-04-11T15:13:45.466Z,20.66
2024-04-11T15:17:21.004Z,20.64
2024-04-11T15:20:50.806Z,20.58
2024-04-11T15:24:19.351Z,20.48
2024-04-11T15:27:50.676Z,20.38
2024-04-11T15:31:30.502Z,20.23
2024-04-11T15:35:08.146Z,20.15
2024-04-11T15:38:39.714Z,20.11
2024-04-11T15:42:09.592Z,20.02
2024-04-11T15:45:35.916Z,19.86
2024-04-11T15:49:08.336Z,19.69
2024-04-11T15:52:35.523Z,19.52
2024-04-11T15:56:03.407Z,19.35
2024-04-11T15:59:32.939Z,19.22
2024-04-11T16:03:03.941Z,19.16
2024-04-11T16:06:33.306Z,19.09
2024-04-11T16:09:59.033Z,19.05
2024-04-11T16:13:28.960Z,19.00
2024-04-11T16:16:56.358Z,18.90
2024-04-11T16:20:22.214Z,18.78
2024-04-11T16:23:57.909Z,18.65
2024-04-11T16:27:28.690Z,18.50
2024-04-11T16:31:18.722Z,18.33
2024-04-11T16:34:44.816Z,18.18
2024-04-11T16:38:12.061Z,18.00
2024-04-11T16:41:39.652Z,17.89
2024-04-11T16:45:21.267Z,17.79
2024-04-11T16:48:47.146Z,17.68
2024-04-11T16:52:17.716Z,17.57
2024-04-11T16:55:48.371Z,17.45
2024-04-11T16:59:21.067Z,17.32
2024-04-11T17:02:46.858Z,17.18
2024-04-11T17:06:15.043Z,17.02
2024-04-11T17:09:40.955Z,16.87
2024-04-11T17:13:11.872Z,16.70
2024-04-11T17:17:00.937Z,16.52
2024-04-11T17:20:50.733Z,16.32
2024-04-11T17:24:21.522Z,16.14
2024-04-11T17:27:48.314Z,15.96
2024-04-11T17:31:25.881Z,15.82
2024-04-11T17:34:56.505Z,15.66
2024-04-11T17:38:34.810Z,15.54
2024-04-11T17:42:14.193Z,15.40
2024-04-11T17:45:44.766Z,15.27
2024-04-11T17:49:27.333Z,15.16
2024-04-11T17:52:56.182Z,15.07
2024-04-11T17:56:25.331Z,15.00
2024-04-11T17:59:54.103Z,14.95
2024-04-11T18:03:21.689Z,14.91
2024-04-11T18:06:50.945Z,14.86
2024-04-11T18:10:17.236Z,14.83
2024-04-11T18:13:43.270Z,14.80
2024-04-11T18:17:11.894Z,14.78
2024-04-11T18:20:40.640Z,14.75
2024-04-11T18:24:13.284Z,14.71
2024-04-11T18:27:41.253Z,14.68
2024-04-11T18:31:07.720Z,14.65
2024-04-11T18:34:36.109Z,14.63
2024-04-11T18:38:01.826Z,14.61
2024-04-11T18:41:41.793Z,14.59
2024-04-11T18:45:18.560Z,14.56
2024-04-11T18:48:49.414Z,14.53
2024-04-11T18:52:23.841Z,14.49
2024-04-11T18:55:51.418Z,14.44
2024-04-11T18:59:22.294Z,14.41
2024-04-11T19:02:48.142Z,14.38
2024-04-11T19:06:17.361Z,14.36
2024-04-11T19:10:02.183Z,14.33
2024-04-11T19:13:29.245Z,14.32
2024-04-11T19:16:55.040Z,14.30
2024-04-11T19:20:31.059Z,14.29
2024-04-11T19:24:07.647Z,14.26
2024-04-11T19:27:34.540Z,14.24
2024-04-11T19:31:00.259Z,14.21
2024-04-11T19:34:26.525Z,14.20
2024-04-11T19:38:01.085Z,14.21
2024-04-11T19:41:28.393Z,14.19
2024-04-11T19:44:54.335Z,14.17
2024-04-11T19:48:30.175Z,14.15
2024-04-11T19:51:58.696Z,14.11
2024-04-11T19:55:28.574Z,14.08
2024-04-11T19:58:58.258Z,14.05
2024-04-11T20:02:25.267Z,14.01
2024-04-11T20:06:00.259Z,13.97
2024-04-11T20:09:26.818Z,13.91
2024-04-11T20:12:55.099Z,13.87
2024-04-11T20:16:22.243Z,13.83
2024-04-11T20:19:50.123Z,13.79
2024-04-11T20:23:20.311Z,13.73
2024-04-11T20:26:47.454Z,13.68
2024-04-11T20:30:16.477Z,13.63
2024-04-11T20:33:44.102Z,13.56
2024-04-11T20:37:09.934Z,13.49
2024-04-11T20:40:36.757Z,13.44
2024-04-11T20:44:23.853Z,13.39
2024-04-11T20:47:56.449Z,13.34
2024-04-11T20:51:40.581Z,13.28
2024-04-11T20:55:25.530Z,13.23
2024-04-11T20:59:09.652Z,13.18
2024-04-11T21:02:53.689Z,13.13
2024-04-11T21:06:37.925Z,13.08
2024-04-11T21:10:22.177Z,13.03
2024-04-11T21:14:06.400Z,12.99
2024-04-11T21:17:50.078Z,12.92
2024-04-11T21:21:33.763Z,12.82
2024-04-11T21:25:18.361Z,12.72
2024-04-11T21:29:03.207Z,12.61
2024-04-11T21:32:47.840Z,12.50
2024-04-11T21:36:17.485Z,12.39
2024-04-11T21:39:51.280Z,12.28
2024-04-11T21:43:26.223Z,12.18
2024-04-11T21:46:56.289Z,12.09
2024-04-11T21:50:32.283Z,12.03
2024-04-11T21:54:00.986Z,11.97
2024-04-11T21:57:29.518Z,11.90
2024-04-11T22:01:04.217Z,11.82
2024-04-11T22:04:34.536Z,11.75
2024-04-11T22:08:08.239Z,11.70
2024-04-11T22:11:35.412Z,11.64
2024-04-11T22:15:02.754Z,11.59
2024-04-11T22:18:31.777Z,11.54
2024-04-11T22:21:59.176Z,11.49
2024-04-11T22:25:27.147Z,11.45
2024-04-11T22:28:55.685Z,11.39
2024-04-11T22:32:25.775Z,11.33
2024-04-11T22:35:58.312Z,11.27
2024-04-11T22:39:39.096Z,11.22
2024-04-11T22:43:16.240Z,11.18
2024-04-11T22:46:50.338Z,11.15
2024-04-11T22:50:20.922Z,11.09
2024-04-11T22:53:53.895Z,11.03
2024-04-11T22:57:22.556Z,10.97
2024-04-11T23:00:49.692Z,10.90
2024-04-11T23:04:31.574Z,10.84
2024-04-11T23:08:02.173Z,10.77
2024-04-11T23:11:30.338Z,10.70
2024-04-11T23:15:12.260Z,10.62
2024-04-11T23:18:40.825Z,10.55
2024-04-11T23:22:09.146Z,10.48
2024-04-11T23:25:39.474Z,10.41
2024-04-11T23:29:09.975Z,10.36
2024-04-11T23:32:39.814Z,10.34
2024-04-11T23:36:08.870Z,10.33
2024-04-11T23:39:41.045Z,10.32
2024-04-11T23:43:11.263Z,10.30
2024-04-11T23:46:42.281Z,10.28
2024-04-11T23:50:13.520Z,10.26
2024-04-11T23:53:40.322Z,10.26
2024-04-11T23:57:11.250Z,10.26
